Terminal Aerodrome Forecast
Issued by NWS Jackson, KY

Home | Current Version | Previous Version | Text Only | Print | Product List | Glossary On
Versions: 1 2 3 4 5 6 7 8 9 10 11 12 13
000
FTUS43 KJKL 241100
TAFJKL
TAF
KJKL 241138Z 2412/2512 00000KT 4SM BR SCT100
     FM241300 00000KT P6SM SCT100
     FM241400 VRB03KT P6SM SCT040=

USA.gov is the U.S. government's official web portal to all federal, state and local government web resources and services.